Evgenia — SV3789 — position and weather

sailwx.info

Track history (hours):
 
Tides and Currents Weather Stations Pressure Air Temp Water Temp Dewpoint Dewpoint Depression Visibility Wind Speed Wind Dir Waves Ship Positions

Evgenia

Last reported at 2016-Jun-10 19:31 UTC. Time now 2016-Jun-29 07:26 UTC.
Position N 37°17' E 023°05'.
Warning: this ship's position is 18 days out of date.

Length 55 m; draft 3.2 m.

Type: Cargo ship. MMSI: 237296900.

Date/timePositionNaut miles runAvg speedWind from/ knotsBaromVisibWave heightAir tempDewpointWater temp
2016-Jun-10 19:31N 37°17' E 023°05'  
2016-Jun-03 22:30N 37°18' E 022°58'7 7.7
2016-Jun-03 21:32N 37°17' E 023°08'7 7.4
2016-Jun-03 20:33N 37°20' E 023°16'8 8.3
2016-Jun-03 19:33N 37°23' E 023°25'7 7.4
2016-Jun-03 18:33N 37°28' E 023°32'16 8.0
2016-Jun-03 16:34N 37°44' E 023°34'8 8.0
2016-Jun-03 15:34N 37°52' E 023°34'5 5.0
2016-Jun-03 14:29N 37°58' E 023°34'  
Track history (hours):
 
Tides and Currents Weather Stations Pressure Air Temp Water Temp Dewpoint Dewpoint Depression Visibility Wind Speed Wind Dir Waves Ship Positions

Evgenia

Last reported at 2016-Jun-10 19:31 UTC. Time now 2016-Jun-29 07:26 UTC.
Position N 37°17' E 023°05'.
Warning: this ship's position is 18 days out of date.

Length 55 m; draft 3.2 m.

Type: Cargo ship. MMSI: 237296900.

Date/timePositionNaut miles runAvg speedWind from/ knotsBaromVisibWave heightAir tempDewpointWater temp
2016-Jun-10 19:31N 37°17' E 023°05'  
2016-Jun-03 22:30N 37°18' E 022°58'7 7.7
2016-Jun-03 21:32N 37°17' E 023°08'7 7.4
2016-Jun-03 20:33N 37°20' E 023°16'8 8.3
2016-Jun-03 19:33N 37°23' E 023°25'7 7.4
2016-Jun-03 18:33N 37°28' E 023°32'16 8.0
2016-Jun-03 16:34N 37°44' E 023°34'8 8.0
2016-Jun-03 15:34N 37°52' E 023°34'5 5.0
2016-Jun-03 14:29N 37°58' E 023°34'  

Dump ship's entire track history